Tomini Victory — V7XE9 — position and weather

sailwx.info

Track history (hours):
 
Tides and Currents Weather Stations Pressure Air Temp Water Temp Dewpoint Dewpoint Depression Visibility Wind Speed Wind Dir Waves Ship Positions

Tomini Victory

Last reported at 2017-Oct-10 03:45 UTC. Time now 2017-Oct-18 05:30 UTC.
Position N 56°04' E 016°48'.
Warning: this ship's position is 8 days out of date.

Length 190 m; draft 13.2 m.

Type: Cargo ship. MMSI: 538004462.

Date/timePositionNaut miles runAvg speedWind from/ knotsBaromVisibWave heightAir tempDewpointWater temp
2017-Oct-10 03:45N 56°04' E 016°48'210.2
2017-Oct-10 03:30N 56°03' E 016°45'510.0
2017-Oct-10 03:01N 55°60' E 016°37'510.1
2017-Oct-10 02:31N 55°57' E 016°30'510.1
2017-Oct-10 02:01N 55°54' E 016°22'510.3
2017-Oct-10 01:30N 55°52' E 016°14'510.3
2017-Oct-10 01:01N 55°49' E 016°07'510.3
2017-Oct-10 00:31N 55°46' E 015°59'510.2
2017-Oct-10 00:01N 55°44' E 015°51'510.5
2017-Oct-09 23:31N 55°41' E 015°43'510.7
2017-Oct-09 23:01N 55°38' E 015°35'810.7
2017-Oct-09 22:13N 55°35' E 015°21'210.7
2017-Oct-09 22:00N 55°34' E 015°18'510.7
2017-Oct-09 21:30N 55°32' E 015°09'610.8
2017-Oct-09 20:57N 55°29' E 014°59'510.8
2017-Oct-09 20:30N 55°27' E 014°51'610.8
2017-Oct-09 19:55N 55°25' E 014°41'510.1
2017-Oct-09 19:24N 55°21' E 014°34'410.3
2017-Oct-09 19:00N 55°18' E 014°30'510.3
2017-Oct-09 18:31N 55°14' E 014°25'510.4
2017-Oct-09 18:00N 55°10' E 014°19'810.5
2017-Oct-09 17:16N 55°04' E 014°11'4710.6
2017-Oct-09 12:47N 54°47' E 012°53'311.6
2017-Oct-09 12:31N 54°46' E 012°48'611.6
2017-Oct-09 12:00N 54°44' E 012°39'611.4
2017-Oct-09 11:31N 54°41' E 012°30'1111.2
2017-Oct-09 10:32N 54°34' E 012°16'111.1
2017-Oct-09 10:28N 54°33' E 012°16'510.4
2017-Oct-09 10:00N 54°29' E 012°13'1310.6
2017-Oct-09 08:45N 54°24' E 011°52'511.7
2017-Oct-09 08:21N 54°26' E 011°44'412.0
2017-Oct-09 08:01N 54°27' E 011°37'612.2
2017-Oct-09 07:30N 54°30' E 011°28'612.5
2017-Oct-09 07:01N 54°33' E 011°18'612.7
2017-Oct-09 06:31N 54°35' E 011°08'612.2
2017-Oct-09 06:01N 54°36' E 010°58'612.2
2017-Oct-09 05:31N 54°40' E 010°49'510.2
2017-Oct-09 05:01N 54°45' E 010°47'612.7
2017-Oct-09 04:31N 54°51' E 010°50'612.6
2017-Oct-09 04:01N 54°57' E 010°54'612.1
2017-Oct-09 03:30N 55°02' E 010°60'612.2
2017-Oct-09 03:01N 55°08' E 010°59'510.6
2017-Oct-09 02:31N 55°12' E 011°05'611.6
2017-Oct-09 02:01N 55°18' E 011°03'1212.4
2017-Oct-09 01:02N 55°29' E 010°54'013.0
2017-Oct-09 01:01N 55°29' E 010°54'9210.8
2017-Oct-08 16:29N 56°56' E 011°45'1012.0
2017-Oct-08 15:39N 57°06' E 011°39'211.8
2017-Oct-08 15:31N 57°07' E 011°38'612.1
2017-Oct-08 15:00N 57°13' E 011°34'612.2
2017-Oct-08 14:30N 57°19' E 011°30'612.1
2017-Oct-08 14:01N 57°24' E 011°26'611.8
2017-Oct-08 13:30N 57°29' E 011°20'611.3
2017-Oct-08 13:00N 57°32' E 011°11'611.5
2017-Oct-08 12:29N 57°34' E 011°01'511.3
2017-Oct-08 12:00N 57°37' E 010°52'510.7
2017-Oct-08 11:30N 57°39' E 010°43'2 2.8
2017-Oct-08 10:57N 57°40' E 010°40'0 0.0
2017-Oct-08 10:30N 57°40' E 010°40'0 0.1
2017-Oct-08 10:00N 57°40' E 010°40'0 0.0
2017-Oct-08 09:30N 57°40' E 010°40'0 0.1
2017-Oct-08 08:24N 57°40' E 010°40'0 0.1
2017-Oct-08 08:00N 57°40' E 010°40'0 0.1
2017-Oct-08 07:30N 57°40' E 010°40'0 0.2
2017-Oct-08 07:00N 57°40' E 010°40'0 0.0
2017-Oct-08 06:24N 57°40' E 010°40'0 0.0
2017-Oct-08 05:57N 57°40' E 010°40'0 0.0
2017-Oct-08 05:30N 57°40' E 010°40'0 0.0
2017-Oct-08 05:00N 57°40' E 010°40'0 0.0
2017-Oct-08 04:30N 57°40' E 010°40'0 0.0
2017-Oct-08 04:00N 57°40' E 010°40'0 0.0
2017-Oct-08 03:30N 57°40' E 010°40'0 0.0
2017-Oct-08 03:00N 57°40' E 010°40'0 0.0
2017-Oct-08 02:24N 57°40' E 010°40'0 0.0
2017-Oct-08 01:57N 57°40' E 010°40'0 0.0
2017-Oct-08 00:48N 57°40' E 010°40'0 0.1
2017-Oct-08 00:24N 57°40' E 010°40'0 0.1
2017-Oct-08 00:00N 57°40' E 010°40'0 0.1
2017-Oct-07 22:33N 57°40' E 010°40'0 0.2
2017-Oct-07 22:30N 57°40' E 010°40'0 0.2
2017-Oct-07 22:00N 57°40' E 010°40'0 0.3
2017-Oct-07 21:28N 57°40' E 010°40'1 1.8
2017-Oct-07 21:00N 57°41' E 010°42'3 5.5
2017-Oct-07 20:30N 57°43' E 010°45'4 8.3
2017-Oct-07 19:59N 57°47' E 010°44'5 9.5
2017-Oct-07 19:30N 57°48' E 010°36'9511.8
2017-Oct-07 11:25N 57°42' E 007°37'511.2
2017-Oct-07 11:00N 57°42' E 007°28'511.1
2017-Oct-07 10:30N 57°43' E 007°18'611.1
2017-Oct-07 10:00N 57°43' E 007°08'510.9
2017-Oct-07 09:30N 57°43' E 006°57'510.8
2017-Oct-07 08:59N 57°43' E 006°47'510.9
2017-Oct-07 08:30N 57°43' E 006°37'611.1
2017-Oct-07 08:00N 57°45' E 006°27'511.0
2017-Oct-07 07:30N 57°46' E 006°17'611.0
2017-Oct-07 06:59N 57°47' E 006°06'  
Track history (hours):
 
Tides and Currents Weather Stations Pressure Air Temp Water Temp Dewpoint Dewpoint Depression Visibility Wind Speed Wind Dir Waves Ship Positions

Tomini Victory

Last reported at 2017-Oct-10 03:45 UTC. Time now 2017-Oct-18 05:30 UTC.
Position N 56°04' E 016°48'.
Warning: this ship's position is 8 days out of date.

Length 190 m; draft 13.2 m.

Type: Cargo ship. MMSI: 538004462.

Date/timePositionNaut miles runAvg speedWind from/ knotsBaromVisibWave heightAir tempDewpointWater temp
2017-Oct-10 03:45N 56°04' E 016°48'210.2
2017-Oct-10 03:30N 56°03' E 016°45'510.0
2017-Oct-10 03:01N 55°60' E 016°37'510.1
2017-Oct-10 02:31N 55°57' E 016°30'510.1
2017-Oct-10 02:01N 55°54' E 016°22'510.3
2017-Oct-10 01:30N 55°52' E 016°14'510.3
2017-Oct-10 01:01N 55°49' E 016°07'510.3
2017-Oct-10 00:31N 55°46' E 015°59'510.2
2017-Oct-10 00:01N 55°44' E 015°51'510.5
2017-Oct-09 23:31N 55°41' E 015°43'510.7
2017-Oct-09 23:01N 55°38' E 015°35'810.7
2017-Oct-09 22:13N 55°35' E 015°21'210.7
2017-Oct-09 22:00N 55°34' E 015°18'510.7
2017-Oct-09 21:30N 55°32' E 015°09'610.8
2017-Oct-09 20:57N 55°29' E 014°59'510.8
2017-Oct-09 20:30N 55°27' E 014°51'610.8
2017-Oct-09 19:55N 55°25' E 014°41'510.1
2017-Oct-09 19:24N 55°21' E 014°34'410.3
2017-Oct-09 19:00N 55°18' E 014°30'510.3
2017-Oct-09 18:31N 55°14' E 014°25'510.4
2017-Oct-09 18:00N 55°10' E 014°19'810.5
2017-Oct-09 17:16N 55°04' E 014°11'4710.6
2017-Oct-09 12:47N 54°47' E 012°53'311.6
2017-Oct-09 12:31N 54°46' E 012°48'611.6
2017-Oct-09 12:00N 54°44' E 012°39'611.4
2017-Oct-09 11:31N 54°41' E 012°30'1111.2
2017-Oct-09 10:32N 54°34' E 012°16'111.1
2017-Oct-09 10:28N 54°33' E 012°16'510.4
2017-Oct-09 10:00N 54°29' E 012°13'1310.6
2017-Oct-09 08:45N 54°24' E 011°52'511.7
2017-Oct-09 08:21N 54°26' E 011°44'412.0
2017-Oct-09 08:01N 54°27' E 011°37'612.2
2017-Oct-09 07:30N 54°30' E 011°28'612.5
2017-Oct-09 07:01N 54°33' E 011°18'612.7
2017-Oct-09 06:31N 54°35' E 011°08'612.2
2017-Oct-09 06:01N 54°36' E 010°58'612.2
2017-Oct-09 05:31N 54°40' E 010°49'510.2
2017-Oct-09 05:01N 54°45' E 010°47'612.7
2017-Oct-09 04:31N 54°51' E 010°50'612.6
2017-Oct-09 04:01N 54°57' E 010°54'612.1
2017-Oct-09 03:30N 55°02' E 010°60'612.2
2017-Oct-09 03:01N 55°08' E 010°59'510.6
2017-Oct-09 02:31N 55°12' E 011°05'611.6
2017-Oct-09 02:01N 55°18' E 011°03'1212.4
2017-Oct-09 01:02N 55°29' E 010°54'013.0
2017-Oct-09 01:01N 55°29' E 010°54'9210.8
2017-Oct-08 16:29N 56°56' E 011°45'1012.0
2017-Oct-08 15:39N 57°06' E 011°39'211.8
2017-Oct-08 15:31N 57°07' E 011°38'612.1
2017-Oct-08 15:00N 57°13' E 011°34'612.2
2017-Oct-08 14:30N 57°19' E 011°30'612.1
2017-Oct-08 14:01N 57°24' E 011°26'611.8
2017-Oct-08 13:30N 57°29' E 011°20'611.3
2017-Oct-08 13:00N 57°32' E 011°11'611.5
2017-Oct-08 12:29N 57°34' E 011°01'511.3
2017-Oct-08 12:00N 57°37' E 010°52'510.7
2017-Oct-08 11:30N 57°39' E 010°43'2 2.8
2017-Oct-08 10:57N 57°40' E 010°40'0 0.0
2017-Oct-08 10:30N 57°40' E 010°40'0 0.1
2017-Oct-08 10:00N 57°40' E 010°40'0 0.0
2017-Oct-08 09:30N 57°40' E 010°40'0 0.1
2017-Oct-08 08:24N 57°40' E 010°40'0 0.1
2017-Oct-08 08:00N 57°40' E 010°40'0 0.1
2017-Oct-08 07:30N 57°40' E 010°40'0 0.2
2017-Oct-08 07:00N 57°40' E 010°40'0 0.0
2017-Oct-08 06:24N 57°40' E 010°40'0 0.0
2017-Oct-08 05:57N 57°40' E 010°40'0 0.0
2017-Oct-08 05:30N 57°40' E 010°40'0 0.0
2017-Oct-08 05:00N 57°40' E 010°40'0 0.0
2017-Oct-08 04:30N 57°40' E 010°40'0 0.0
2017-Oct-08 04:00N 57°40' E 010°40'0 0.0
2017-Oct-08 03:30N 57°40' E 010°40'0 0.0
2017-Oct-08 03:00N 57°40' E 010°40'0 0.0
2017-Oct-08 02:24N 57°40' E 010°40'0 0.0
2017-Oct-08 01:57N 57°40' E 010°40'0 0.0
2017-Oct-08 00:48N 57°40' E 010°40'0 0.1
2017-Oct-08 00:24N 57°40' E 010°40'0 0.1
2017-Oct-08 00:00N 57°40' E 010°40'0 0.1
2017-Oct-07 22:33N 57°40' E 010°40'0 0.2
2017-Oct-07 22:30N 57°40' E 010°40'0 0.2
2017-Oct-07 22:00N 57°40' E 010°40'0 0.3
2017-Oct-07 21:28N 57°40' E 010°40'1 1.8
2017-Oct-07 21:00N 57°41' E 010°42'3 5.5
2017-Oct-07 20:30N 57°43' E 010°45'4 8.3
2017-Oct-07 19:59N 57°47' E 010°44'5 9.5
2017-Oct-07 19:30N 57°48' E 010°36'9511.8
2017-Oct-07 11:25N 57°42' E 007°37'511.2
2017-Oct-07 11:00N 57°42' E 007°28'511.1
2017-Oct-07 10:30N 57°43' E 007°18'611.1
2017-Oct-07 10:00N 57°43' E 007°08'510.9
2017-Oct-07 09:30N 57°43' E 006°57'510.8
2017-Oct-07 08:59N 57°43' E 006°47'510.9
2017-Oct-07 08:30N 57°43' E 006°37'611.1
2017-Oct-07 08:00N 57°45' E 006°27'511.0
2017-Oct-07 07:30N 57°46' E 006°17'611.0
2017-Oct-07 06:59N 57°47' E 006°06'  

Dump ship's entire track history